Les articles d'ExpertMaritime.pro


Votre expert maritime indépendant Xavier Braive est disponible sur la zone de Saujon - Port de Ribérou - 17600

(Charente-Maritime - Poitou-Charentes)


Voir plan
Situation :

Le port de Ribérou est un port de pêche et de plaisance situé au fond de l'estuaire de la Seudre, à Saujon. C'est l'un des deux ports de la ville avec celui du Breuil, un peu en aval.

Actif dès le XIe siècle, il prend son aspect actuel à partir de 1842, sous l'impulsion du ministre des travaux publics de l'époque, Jules Dufaure, " enfant du pays", qui tente ainsi de relancer le commerce maritime et les activités halieutiques, alors en déclin.
Idéalement situé, en marge du centre-ville, de la base de loisirs de La Lande et des espaces préservés des marais de la Seudre (chemins de halage transformés en sentiers de promenade), il est devenu un des hauts lieux du tourisme saujonnais, où sont notamment organisés des soirées thématiques et le feu d'artifice du 14 juillet.

En 2011, le port de Ribérou a été l'objet d'un important programme de rénovation urbaine conduit par l'architecte-urbaniste Sophie Blanchet, complétant des efforts déjà mis en œuvre en centre-ville.
Une partie du site est reconvertie en esplanade piétonne, dotée d'un mobilier urbain contemporain : il se veut une sorte de "trait d'union" entre la base de loisirs de La Lande (piscine, tennis, boulodrome, stade, terrain de basket...), les sentiers de promenade et de découverte des marais de la Seudre, qui débutent au port, et le centre-ville.
L'inauguration du nouveau port a lieu le 18 août 2012, en présence du maire, Pascal Ferchaud, et d'une foule nombreuse venue profiter des animations : concerts, jeux nautiques, joutes, etc.

Aujourd'hui, le port de Ribérou est un petit port de pêche et de plaisance. C'est également une base de départ pour certains sports nautiques (canoë-kayak). Sa longueur est d'environ 250 mètres pour 40 mètres.
Depuis Ribérou, il est possible d'atteindre successivement les ports du Breuil (Saujon), de L'Éguille, de Mornac, de Chaillevette, de Chatressac (Chaillevette), des Grandes Roches et d'Orivol (Étaules), de La Grève à Duret et de Coux (Arvert), de La Grève (La Tremblade) et de La Cayenne (Marennes).


En 2011, la municipalité entame un programme de rénovation du site portuaire, confié à l'architecte-urbaniste Sophie Blanchet. Il consiste en une transformation des anciens parkings en esplanade piétonne, véritable espace de rencontre doté d'un mobilier urbain moderne et à terme, d'espaces verts. Depuis les quais, bordés d'immeubles bourgeois, de petites rues pittoresques et fleuries de roses trémières permettent de sillonner le quartier et de rejoindre le centre-ville.

Le pont à écluse de Ribérou, dit « pont des eaux contraires », a été rénové en 2010. Il marque la séparation entre les eaux de l'estuaire (côté port : eaux saumâtres) et les eaux du fleuve (côté bassin de retenue : eaux douces).



Adresse :

Mairie
1, place Denfert Rochereau
17600 SAUJON

Tél/Fax : 05 46 02 80 07 / 05 46 02 91 92

E-mail : contact@mairie-saujon.fr
Météo locale sur la zone Port de Ribérou
Heure (UTC) Dir.Vent Vit.Vent (nds) Force (Bft) T°min T°max P (mb) Hum.Rel.
17/07/2019 - 21:00:00 au 18/07/2019 - 00:00:00 295° (WNW) 9 3 17°C 18°C 1016 87 %
18/07/2019 - 00:00:00 au 18/07/2019 - 03:00:00 300° (WNW) 10 3 17°C 18°C 1016 87 %
18/07/2019 - 03:00:00 au 18/07/2019 - 06:00:00 305° (NW) 8 3 18°C 18°C 1017 82 %
18/07/2019 - 06:00:00 au 18/07/2019 - 09:00:00 269° (W) 9 3 20°C 20°C 1018 66 %
18/07/2019 - 09:00:00 au 18/07/2019 - 12:00:00 256° (WSW) 11 4 21°C 21°C 1017 61 %
18/07/2019 - 12:00:00 au 18/07/2019 - 15:00:00 255° (WSW) 12 4 21°C 21°C 1017 65 %
18/07/2019 - 15:00:00 au 18/07/2019 - 18:00:00 248° (WSW) 10 3 20°C 20°C 1016 75 %
18/07/2019 - 18:00:00 au 18/07/2019 - 21:00:00 254° (WSW) 8 3 18°C 18°C 1017 92 %
18/07/2019 - 21:00:00 au 19/07/2019 - 00:00:00 293° (WNW) 7 3 17°C 17°C 1017 90 %
19/07/2019 - 00:00:00 au 19/07/2019 - 03:00:00 280° (W) 3 1 16°C 16°C 1017 90 %
19/07/2019 - 03:00:00 au 19/07/2019 - 06:00:00 151° (SSE) 3 1 18°C 18°C 1017 86 %
19/07/2019 - 06:00:00 au 19/07/2019 - 09:00:00 243° (WSW) 6 2 21°C 21°C 1018 69 %
19/07/2019 - 09:00:00 au 19/07/2019 - 12:00:00 259° (W) 7 3 22°C 22°C 1017 60 %
19/07/2019 - 12:00:00 au 19/07/2019 - 15:00:00 264° (W) 7 3 22°C 22°C 1015 60 %
19/07/2019 - 15:00:00 au 19/07/2019 - 18:00:00 298° (WNW) 7 3 21°C 21°C 1014 63 %
19/07/2019 - 18:00:00 au 19/07/2019 - 21:00:00 347° (NNW) 5 2 18°C 18°C 1014 80 %
19/07/2019 - 21:00:00 au 20/07/2019 - 00:00:00 044° (NE) 2 1 16°C 16°C 1014 86 %
20/07/2019 - 00:00:00 au 20/07/2019 - 03:00:00 354° () 3 1 16°C 16°C 1013 88 %
20/07/2019 - 03:00:00 au 20/07/2019 - 06:00:00 137° (SE) 3 1 18°C 18°C 1013 83 %
20/07/2019 - 06:00:00 au 20/07/2019 - 09:00:00 255° (WSW) 7 3 22°C 22°C 1015 66 %
20/07/2019 - 09:00:00 au 20/07/2019 - 12:00:00 267° (W) 11 4 23°C 23°C 1016 66 %
20/07/2019 - 12:00:00 au 20/07/2019 - 15:00:00 271° (W) 11 4 23°C 23°C 1016 71 %
20/07/2019 - 15:00:00 au 20/07/2019 - 18:00:00 298° (WNW) 9 3 21°C 21°C 1017 78 %
20/07/2019 - 18:00:00 au 20/07/2019 - 21:00:00 315° (NW) 8 3 18°C 18°C 1019 88 %
20/07/2019 - 21:00:00 au 21/07/2019 - 00:00:00 341° (NNW) 4 2 17°C 17°C 1020 91 %
21/07/2019 - 00:00:00 au 21/07/2019 - 03:00:00 034° (NE) 4 2 15°C 15°C 1020 93 %
21/07/2019 - 03:00:00 au 21/07/2019 - 06:00:00 060° (ENE) 4 2 16°C 16°C 1020 90 %
21/07/2019 - 06:00:00 au 21/07/2019 - 09:00:00 027° (NNE) 4 2 22°C 22°C 1021 61 %
21/07/2019 - 09:00:00 au 21/07/2019 - 12:00:00 329° (NNW) 5 2 26°C 26°C 1021 46 %
21/07/2019 - 12:00:00 au 21/07/2019 - 15:00:00 309° (NW) 9 3 26°C 26°C 1019 47 %
21/07/2019 - 15:00:00 au 21/07/2019 - 18:00:00 320° (NW) 9 3 25°C 25°C 1018 55 %
21/07/2019 - 18:00:00 au 21/07/2019 - 21:00:00 003° (N) 8 3 22°C 22°C 1018 59 %
21/07/2019 - 21:00:00 au 22/07/2019 - 00:00:00 055° (NE) 6 2 20°C 20°C 1018 64 %
22/07/2019 - 00:00:00 au 22/07/2019 - 03:00:00 065° (ENE) 7 3 20°C 20°C 1017 63 %
22/07/2019 - 03:00:00 au 22/07/2019 - 06:00:00 080° (E) 6 2 21°C 21°C 1017 61 %
22/07/2019 - 06:00:00 au 22/07/2019 - 09:00:00 132° (SE) 4 2 28°C 28°C 1018 54 %
22/07/2019 - 09:00:00 au 22/07/2019 - 12:00:00 275° (W) 8 3 30°C 30°C 1018 47 %
22/07/2019 - 12:00:00 au 22/07/2019 - 15:00:00 276° (W) 8 3 30°C 30°C 1017 49 %
22/07/2019 - 15:00:00 au 22/07/2019 - 18:00:00 300° (WNW) 9 3 26°C 26°C 1016 58 %
22/07/2019 - 18:00:00 au 22/07/2019 - 21:00:00 319° (NW) 6 2 23°C 23°C 1017 63 %
openweathermap
Ces informations sont partiellement extraites de Wikipedia, et des sites pertinents pour cette zone. Compilation d'informations de Xavier Braive.
Xavier Braive, Expert Maritime Plaisance se déplace sur Port de Ribérou, Saujon, 17600, Charente-Maritime

Welcome to Cross-Channel yachtmen !

we can deliver survey reports in english, in case of dammage or prior to buy / sell a boat in France (pre-purchase survey), and more specifically on the Normandy and Atlantic coasts.

Zone Méditerrannée

En partenariat avec le cabinet d'expertise IEM, nous proposons une couverture de la Côte d'Azur.
N'hésitez pas à contacter IEM en cliquant sur www.expert-maritime-cote-dazur.com

Uw onafhankelijk jachtexpert

verkrijkbaar op de Normandie kust, bij aankoop of reparatie van jachten (metaal, polyester of composiet). Rapporten in Nederlands

BRAIVE, Xavier
Xavier Braive
Expert Maritime
Nouvelle Aquitaine
France
06 71 50 20 17